Time;durP1;ratioP1;P1;durP2;ratioP2;P2;SDS_P1;SDS_P2;PMS_P1;PMS_P2;Temp;Humidity;BMP_temperature;BMP_pressure;BME280_temperature;BME280_humidity;BME280_pressure;Samples;Min_cycle;Max_cycle;Signal;HPM_P1;HPM_P2
2022/11/10 00:01:21;;;;;;;0.00;0.00;;;11.60;99.90;10.60;97359.00;;;;5057949;28;20609;-75
2022/11/10 00:04:08;;;;;;;0.10;0.10;;;11.60;99.90;10.60;97355.00;;;;5057793;28;20586;-74
2022/11/10 00:06:54;;;;;;;0.10;0.10;;;11.60;99.90;10.60;97352.00;;;;5053631;28;20259;-74
2022/11/10 00:09:41;;;;;;;0.10;0.10;;;11.60;99.90;10.70;97358.00;;;;5046797;28;20208;-74
2022/11/10 00:12:29;;;;;;;0.00;0.00;;;11.60;99.90;10.70;97362.00;;;;5057692;28;20256;-74
2022/11/10 00:18:28;;;;;;;0.10;0.10;;;11.60;99.90;10.60;97365.00;;;;5012284;28;20221;-74
2022/11/10 00:21:17;;;;;;;0.10;0.10;;;11.60;99.90;10.50;97371.00;;;;5063187;28;20312;-74
2022/11/10 00:24:05;;;;;;;0.10;0.10;;;11.50;99.90;10.40;97372.00;;;;5059979;28;20569;-74
2022/11/10 00:26:53;;;;;;;0.10;0.10;;;11.40;99.90;10.40;97379.00;;;;5065953;28;20224;-73
2022/11/10 00:29:39;;;;;;;0.10;0.10;;;11.40;99.90;10.40;97374.00;;;;5058381;28;20213;-74
2022/11/10 00:32:26;;;;;;;0.10;0.10;;;11.40;99.90;10.40;97369.00;;;;5049944;28;20213;-74
2022/11/10 00:35:14;;;;;;;0.10;0.10;;;11.30;99.90;10.30;97385.00;;;;5057478;28;20658;-74
2022/11/10 00:38:01;;;;;;;0.00;0.00;;;11.30;99.90;10.30;97372.00;;;;5049288;28;20265;-74
2022/11/10 00:40:48;;;;;;;0.10;0.10;;;11.20;99.90;10.30;97386.00;;;;5050897;28;20260;-74
2022/11/10 00:43:34;;;;;;;0.08;0.08;;;11.20;99.90;10.30;97381.00;;;;5055394;28;20226;-74
2022/11/10 00:46:21;;;;;;;0.10;0.10;;;11.20;99.90;10.30;97386.00;;;;5049281;28;20221;-74
2022/11/10 00:49:08;;;;;;;0.10;0.10;;;11.20;99.90;10.30;97386.00;;;;5056335;28;20302;-74
2022/11/10 00:51:57;;;;;;;0.00;0.00;;;11.30;99.90;10.40;97403.00;;;;5058338;28;20212;-73
2022/11/10 00:54:43;;;;;;;0.10;0.10;;;11.40;99.90;10.40;97406.00;;;;5058438;28;20264;-73
2022/11/10 00:57:30;;;;;;;0.10;0.10;;;11.40;99.90;10.30;97406.00;;;;5098446;22;20290;-75
2022/11/10 01:00:18;;;;;;;0.00;0.00;;;11.20;99.90;10.20;97386.00;;;;5071317;28;20200;-76
2022/11/10 01:03:04;;;;;;;0.10;0.10;;;11.20;99.90;10.20;97409.00;;;;5073348;28;20216;-76
2022/11/10 01:05:51;;;;;;;0.00;0.00;;;11.20;99.90;10.20;97425.00;;;;5065695;28;20245;-76
2022/11/10 01:08:41;;;;;;;0.00;0.00;;;11.20;99.90;10.20;97416.00;;;;5070914;28;20709;-75
2022/11/10 01:11:28;;;;;;;0.10;0.10;;;11.20;99.90;10.20;97418.00;;;;5071393;28;20209;-76
2022/11/10 01:14:15;;;;;;;0.10;0.10;;;11.20;99.90;10.20;97415.00;;;;5065452;28;20204;-76
2022/11/10 01:17:02;;;;;;;0.10;0.10;;;11.20;99.90;10.20;97425.00;;;;5073478;28;20406;-75
2022/11/10 01:19:48;;;;;;;0.10;0.10;;;11.20;99.90;10.20;97421.00;;;;5073322;28;20216;-75
2022/11/10 01:22:35;;;;;;;0.10;0.10;;;11.20;99.90;10.20;97419.00;;;;5073539;28;20224;-75
2022/11/10 01:25:23;;;;;;;0.10;0.10;;;11.20;99.90;10.20;97428.00;;;;5073185;28;20690;-75
2022/11/10 01:28:10;;;;;;;0.10;0.10;;;11.20;99.90;10.00;97420.00;;;;5072900;28;20204;-74
2022/11/10 01:30:58;;;;;;;0.00;0.00;;;11.00;99.90;10.00;97416.00;;;;5072296;28;20324;-74
2022/11/10 01:33:45;;;;;;;0.10;0.10;;;10.90;99.90;9.90;97425.00;;;;5073248;28;20204;-74
2022/11/10 01:36:32;;;;;;;0.10;0.10;;;11.00;99.90;9.90;97422.00;;;;5073471;28;20228;-74
2022/11/10 01:39:19;;;;;;;0.10;0.10;;;10.90;99.90;9.80;97428.00;;;;5073357;28;20691;-74
2022/11/10 01:42:07;;;;;;;0.05;0.05;;;10.80;99.90;9.80;97429.00;;;;5069581;28;20204;-75
2022/11/10 01:45:43;;;;;;;0.10;0.10;;;10.80;99.90;9.70;97427.00;;;;5070748;28;20204;-75
2022/11/10 01:48:36;;;;;;;0.08;0.08;;;10.70;99.90;9.60;97426.00;;;;5065202;28;20274;-75
2022/11/10 01:51:29;;;;;;;0.10;0.10;;;10.50;99.90;9.50;97440.00;;;;5072574;28;20205;-74
2022/11/10 01:54:22;;;;;;;0.10;0.10;;;10.50;99.90;9.40;97437.00;;;;5072741;28;20216;-74
2022/11/10 01:57:13;;;;;;;0.10;0.10;;;10.40;99.90;9.30;97446.00;;;;5065080;28;20723;-75
2022/11/10 02:00:01;;;;;;;0.10;0.10;;;10.30;99.90;9.30;97442.00;;;;5072655;28;20209;-74
2022/11/10 02:02:55;;;;;;;0.10;0.10;;;10.20;99.90;9.10;97448.00;;;;5071213;28;20267;-75
2022/11/10 02:05:44;;;;;;;0.00;0.00;;;10.10;99.90;9.10;97459.00;;;;5069817;28;20320;-75
2022/11/10 02:08:31;;;;;;;0.10;0.10;;;10.00;99.90;9.10;97452.00;;;;5068037;28;20304;-76
2022/11/10 02:11:18;;;;;;;0.10;0.10;;;10.00;99.90;9.10;97443.00;;;;5071773;28;20212;-76
2022/11/10 02:14:06;;;;;;;0.10;0.10;;;10.00;99.90;9.10;97468.00;;;;5072764;28;20683;-74
2022/11/10 02:16:53;;;;;;;0.10;0.10;;;10.00;99.90;9.10;97465.00;;;;5072126;28;20236;-74
2022/11/10 02:19:42;;;;;;;0.10;0.10;;;10.00;99.90;9.00;97466.00;;;;5070195;28;20296;-75
2022/11/10 02:22:30;;;;;;;0.10;0.10;;;9.90;99.90;9.00;97450.00;;;;5069542;28;20335;-75
2022/11/10 02:25:22;;;;;;;0.10;0.10;;;10.00;99.90;9.00;97469.00;;;;5073575;28;20224;-74
2022/11/10 02:28:09;;;;;;;0.10;0.10;;;9.90;99.90;8.90;97401.00;;;;5073522;28;20204;-74
2022/11/10 02:30:55;;;;;;;0.08;0.08;;;9.90;99.90;8.90;97482.00;;;;5071957;28;20263;-74
2022/11/10 02:33:42;;;;;;;0.10;0.10;;;9.90;99.90;9.00;97484.00;;;;5072068;28;20573;-75
2022/11/10 02:36:29;;;;;;;0.10;0.10;;;10.00;99.90;9.00;97495.00;;;;5072341;28;20344;-74
2022/11/10 02:39:17;;;;;;;0.10;0.10;;;10.00;99.90;9.00;97497.00;;;;5065264;28;20223;-74
2022/11/10 02:42:09;;;;;;;0.10;0.10;;;10.00;99.90;8.90;97494.00;;;;5073590;28;20224;-76
2022/11/10 02:44:56;;;;;;;0.10;0.10;;;9.90;99.90;8.80;97497.00;;;;5071531;28;20216;-74
2022/11/10 02:47:43;;;;;;;0.10;0.10;;;9.80;99.90;8.80;97514.00;;;;5068454;28;20236;-74
2022/11/10 02:50:30;;;;;;;0.10;0.10;;;9.90;99.90;8.90;97519.00;;;;5073399;28;20259;-74
2022/11/10 02:53:17;;;;;;;0.00;0.00;;;9.80;99.90;8.80;97502.00;;;;5080888;28;20201;-74
2022/11/10 02:56:06;;;;;;;0.10;0.10;;;9.80;99.90;8.80;97505.00;;;;5073988;28;20221;-74
2022/11/10 02:58:52;;;;;;;0.10;0.10;;;9.80;99.90;8.70;97514.00;;;;5071122;28;20216;-74
2022/11/10 03:01:39;;;;;;;0.10;0.10;;;9.70;99.90;8.60;97518.00;;;;5068612;28;20251;-75
2022/11/10 03:04:26;;;;;;;0.10;0.10;;;9.70;99.90;8.60;97515.00;;;;5071509;28;20212;-75
2022/11/10 03:07:12;;;;;;;0.00;0.00;;;9.70;99.90;8.70;97520.00;;;;5064618;28;20221;-74
2022/11/10 03:09:59;;;;;;;0.10;0.10;;;9.70;99.90;8.70;97527.00;;;;5062407;28;20216;-74
2022/11/10 03:12:48;;;;;;;0.10;0.10;;;9.70;99.90;8.70;97528.00;;;;5071537;28;20623;-73
2022/11/10 03:15:35;;;;;;;0.10;0.10;;;9.70;99.90;8.60;97539.00;;;;5068610;28;20572;-73
2022/11/10 03:18:22;;;;;;;0.10;0.10;;;9.70;99.90;8.70;97548.00;;;;5070434;28;20225;-75
2022/11/10 03:21:09;;;;;;;0.05;0.05;;;9.70;99.90;8.70;97553.00;;;;5071973;28;20306;-74
2022/11/10 03:23:55;;;;;;;0.10;0.10;;;9.80;99.90;8.60;97551.00;;;;5070566;28;20212;-74
2022/11/10 03:26:42;;;;;;;0.00;0.00;;;9.70;99.90;8.60;97555.00;;;;5070449;28;20585;-74
2022/11/10 03:29:30;;;;;;;0.00;0.00;;;9.60;99.90;8.60;97556.00;;;;5071078;28;20219;-75
2022/11/10 03:32:17;;;;;;;0.00;0.00;;;9.70;99.90;8.70;97563.00;;;;5063438;28;20714;-74
2022/11/10 03:35:05;;;;;;;0.10;0.10;;;9.80;99.90;8.50;97576.00;;;;5062080;28;20276;-74
2022/11/10 03:37:51;;;;;;;0.10;0.10;;;9.80;99.90;8.30;97573.00;;;;5062691;28;20367;-74
2022/11/10 03:40:38;;;;;;;0.00;0.00;;;9.50;99.90;8.30;97579.00;;;;5067303;28;20807;-74
2022/11/10 03:43:44;;;;;;;0.10;0.10;;;9.50;99.90;8.40;97576.00;;;;5067438;28;20213;-74
2022/11/10 03:46:32;;;;;;;0.10;0.10;;;9.50;99.90;8.30;97574.00;;;;5065095;28;20243;-74
2022/11/10 03:49:19;;;;;;;0.10;0.10;;;9.40;99.90;8.20;97579.00;;;;5051919;28;20209;-75
2022/11/10 03:52:06;;;;;;;0.00;0.00;;;9.30;99.90;8.00;97579.00;;;;5066566;28;20220;-76
2022/11/10 03:54:55;;;;;;;0.00;0.00;;;9.10;99.90;7.80;97571.00;;;;5070781;28;20667;-75
2022/11/10 03:57:49;;;;;;;0.10;0.10;;;8.90;99.90;7.80;97578.00;;;;5069096;28;20283;-75
2022/11/10 04:00:36;;;;;;;0.10;0.10;;;8.90;99.90;7.70;97582.00;;;;5067248;28;20201;-75
2022/11/10 04:03:24;;;;;;;0.00;0.00;;;8.90;99.90;7.80;97578.00;;;;5069396;28;20224;-75
2022/11/10 04:09:16;;;;;;;0.03;0.03;;;8.90;99.90;7.70;97591.00;;;;5063408;28;20255;-76
2022/11/10 04:18:28;;;;;;;0.10;0.10;;;8.90;99.90;7.70;97601.00;;;;5064026;28;20228;-76
2022/11/10 04:21:16;;;;;;;0.10;0.10;;;8.80;99.90;7.80;97605.00;;;;5070852;28;20200;-76
2022/11/10 04:24:03;;;;;;;0.10;0.10;;;8.90;99.90;7.80;97609.00;;;;5070437;28;20569;-76
2022/11/10 04:26:50;;;;;;;0.10;0.10;;;8.80;99.90;7.80;97614.00;;;;5068598;28;20330;-76
2022/11/10 04:29:37;;;;;;;0.10;0.10;;;8.90;99.90;7.80;97622.00;;;;5065004;28;20305;-76
2022/11/10 04:32:23;;;;;;;0.10;0.10;;;8.90;99.90;7.90;97624.00;;;;5065439;28;20226;-76
2022/11/10 04:35:10;;;;;;;0.10;0.10;;;9.00;99.90;7.70;97617.00;;;;5057517;28;20255;-76
2022/11/10 04:38:00;;;;;;;0.10;0.10;;;8.80;99.90;7.60;97616.00;;;;5071985;28;20228;-75
2022/11/10 04:40:46;;;;;;;0.10;0.10;;;8.70;99.90;7.50;97622.00;;;;5071269;28;20204;-76
2022/11/10 04:43:34;;;;;;;0.10;0.10;;;8.60;99.90;7.50;97623.00;;;;5073673;28;20224;-75
2022/11/10 04:46:24;;;;;;;0.10;0.10;;;8.60;99.90;7.50;97582.00;;;;5073749;28;20219;-76
2022/11/10 04:49:11;;;;;;;0.10;0.10;;;8.60;99.90;7.50;97641.00;;;;5069003;28;20212;-75
2022/11/10 04:51:58;;;;;;;0.10;0.10;;;8.60;99.90;7.50;97642.00;;;;5068580;28;20294;-75
2022/11/10 04:54:46;;;;;;;0.10;0.10;;;8.60;99.90;7.50;97647.00;;;;5073665;28;20208;-76
2022/11/10 04:57:33;;;;;;;0.10;0.10;;;8.60;99.90;7.40;97647.00;;;;5070520;28;20287;-76
2022/11/10 05:00:20;;;;;;;0.10;0.10;;;8.50;99.90;7.30;97625.00;;;;5065522;28;20212;-76
2022/11/10 05:03:10;;;;;;;0.10;0.10;;;8.40;99.90;7.20;97666.00;;;;5070800;28;20225;-75
2022/11/10 05:05:56;;;;;;;0.10;0.10;;;8.30;99.90;7.00;97659.00;;;;5073244;28;20236;-76
2022/11/10 05:08:44;;;;;;;0.10;0.10;;;8.10;99.90;7.00;97657.00;;;;5070087;28;20216;-76
2022/11/10 05:11:32;;;;;;;0.10;0.10;;;8.10;99.90;7.00;97673.00;;;;5063479;28;20210;-75
2022/11/10 05:14:19;;;;;;;0.10;0.10;;;8.10;99.90;7.00;97671.00;;;;5071713;28;20197;-75
2022/11/10 05:17:06;;;;;;;0.10;0.10;;;8.10;99.90;7.20;97673.00;;;;5071248;28;20258;-75
2022/11/10 05:19:52;;;;;;;0.10;0.10;;;8.30;99.90;7.20;97670.00;;;;5072910;28;20212;-75
2022/11/10 05:22:39;;;;;;;0.10;0.10;;;8.30;99.90;7.30;97674.00;;;;5057282;28;20252;-76
2022/11/10 05:25:35;;;;;;;0.10;0.10;;;8.40;99.90;7.30;97689.00;;;;5063268;28;20216;-75
2022/11/10 05:28:23;;;;;;;0.10;0.10;;;8.40;99.90;7.30;97673.00;;;;5066894;28;20217;-75
2022/11/10 05:31:11;;;;;;;0.05;0.05;;;8.40;99.90;7.30;97669.00;;;;5073673;28;20741;-76
2022/11/10 05:33:58;;;;;;;0.10;0.10;;;8.50;99.90;7.40;97692.00;;;;5072315;28;20806;-76
2022/11/10 05:36:45;;;;;;;0.10;0.10;;;8.50;99.90;7.30;97675.00;;;;5073156;28;20229;-76
2022/11/10 05:39:38;;;;;;;0.10;0.10;;;8.50;99.90;7.20;97663.00;;;;5073569;28;20358;-76
2022/11/10 05:42:26;;;;;;;0.10;0.10;;;8.30;99.90;7.20;97674.00;;;;5085031;28;20227;-76
2022/11/10 05:45:15;;;;;;;0.10;0.10;;;8.30;99.90;7.20;97686.00;;;;5074320;28;20198;-75
2022/11/10 05:48:04;;;;;;;0.10;0.10;;;8.20;99.90;7.10;97687.00;;;;5077928;28;20247;-75
2022/11/10 05:50:50;;;;;;;0.00;0.00;;;8.20;99.90;7.10;97700.00;;;;5080272;28;20224;-75
2022/11/10 05:53:37;;;;;;;0.10;0.10;;;8.20;99.90;7.10;97695.00;;;;5080440;28;20205;-75
2022/11/10 05:56:24;;;;;;;0.10;0.10;;;8.20;99.90;7.10;97709.00;;;;5074404;28;20260;-75
2022/11/10 05:59:10;;;;;;;0.10;0.10;;;8.20;99.90;7.20;97710.00;;;;5075688;28;20219;-75
2022/11/10 06:01:58;;;;;;;0.10;0.10;;;8.30;99.90;7.20;97706.00;;;;5079563;28;20220;-74
2022/11/10 06:04:45;;;;;;;0.10;0.10;;;8.30;99.90;7.20;97719.00;;;;5063728;28;20222;-75
2022/11/10 06:07:32;;;;;;;0.10;0.10;;;8.30;99.90;7.20;97730.00;;;;5072070;28;20275;-76
2022/11/10 06:10:19;;;;;;;0.10;0.10;;;8.20;99.90;7.20;97732.00;;;;5072737;28;20255;-76
2022/11/10 06:13:07;;;;;;;0.10;0.10;;;8.30;99.90;7.20;97739.00;;;;5072948;28;20213;-75
2022/11/10 06:15:54;;;;;;;0.10;0.10;;;8.30;99.90;7.20;97747.00;;;;5072362;28;20602;-76
2022/11/10 06:18:42;;;;;;;0.10;0.10;;;8.30;99.90;7.20;97752.00;;;;5069409;28;20229;-75
2022/11/10 06:21:29;;;;;;;0.10;0.10;;;8.30;99.90;7.20;97758.00;;;;5073753;28;20518;-75
2022/11/10 06:24:15;;;;;;;0.10;0.10;;;8.30;99.90;7.10;97766.00;;;;5059396;28;20250;-79
2022/11/10 06:27:02;;;;;;;0.00;0.00;;;8.20;99.90;7.00;97722.00;;;;5073261;28;20220;-75
2022/11/10 06:29:49;;;;;;;0.10;0.10;;;8.10;99.90;7.00;97783.00;;;;5071487;28;20209;-76
2022/11/10 06:32:36;;;;;;;0.10;0.10;;;8.10;99.90;7.00;97801.00;;;;5069610;28;20208;-76
2022/11/10 06:35:25;;;;;;;0.10;0.10;;;8.10;99.90;7.00;97796.00;;;;5071592;28;20196;-76
2022/11/10 06:38:12;;;;;;;0.10;0.10;;;8.10;99.90;7.00;97812.00;;;;5071870;28;20227;-75
2022/11/10 06:40:58;;;;;;;0.10;0.10;;;8.10;99.90;7.10;97815.00;;;;5071160;28;20211;-75
2022/11/10 06:43:45;;;;;;;0.00;0.00;;;8.10;99.90;7.10;97822.00;;;;5072781;28;20617;-76
2022/11/10 06:46:32;;;;;;;0.10;0.10;;;8.20;99.90;7.20;97834.00;;;;5072378;28;20267;-76
2022/11/10 06:49:25;;;;;;;0.10;0.10;;;8.20;99.90;7.20;97834.00;;;;5064440;28;20312;-75
2022/11/10 06:52:13;;;;;;;0.10;0.10;;;8.20;99.90;7.20;97848.00;;;;5059416;28;20754;-75
2022/11/10 06:55:00;;;;;;;0.10;0.10;;;8.30;99.90;7.10;97844.00;;;;5058897;28;20259;-76
2022/11/10 06:57:46;;;;;;;0.10;0.10;;;8.20;99.90;7.10;97851.00;;;;5063473;28;20233;-74
2022/11/10 07:00:33;;;;;;;0.10;0.10;;;8.20;99.90;6.90;97858.00;;;;5061755;28;20296;-73
2022/11/10 07:03:21;;;;;;;0.10;0.10;;;8.10;99.90;7.00;97856.00;;;;5057596;28;20236;-73
2022/11/10 07:06:08;;;;;;;0.10;0.10;;;8.10;99.90;7.10;97862.00;;;;5052633;28;20711;-73
2022/11/10 07:08:57;;;;;;;0.10;0.10;;;8.10;99.90;7.10;97875.00;;;;5060539;28;20213;-73
2022/11/10 07:11:44;;;;;;;0.10;0.10;;;8.10;99.90;7.20;97885.00;;;;5070443;28;20209;-70
2022/11/10 07:14:30;;;;;;;0.10;0.10;;;8.20;99.90;7.30;97883.00;;;;5065578;28;20286;-70
2022/11/10 07:17:17;;;;;;;0.10;0.10;;;8.30;99.90;7.30;97882.00;;;;5064404;28;20220;-71
2022/11/10 07:20:05;;;;;;;0.10;0.10;;;8.40;99.90;7.20;97880.00;;;;5068370;28;20224;-70
2022/11/10 07:22:58;;;;;;;0.10;0.10;;;8.20;99.90;7.30;97896.00;;;;5063503;28;20215;-72
2022/11/10 07:25:46;;;;;;;0.10;0.10;;;8.40;99.90;7.40;97913.00;;;;5068478;28;20776;-72
2022/11/10 07:28:34;;;;;;;0.10;0.10;;;8.50;99.90;7.50;97897.00;;;;5064465;28;20220;-72
2022/11/10 07:31:20;;;;;;;0.10;0.10;;;8.50;99.90;7.80;97906.00;;;;5059730;28;20231;-73
2022/11/10 07:34:07;;;;;;;0.10;0.10;;;8.80;99.90;7.80;97905.00;;;;5071372;28;20224;-73
2022/11/10 07:36:54;;;;;;;0.10;0.10;;;8.80;99.90;7.70;97906.00;;;;5071422;28;20223;-72
2022/11/10 07:39:41;;;;;;;0.10;0.10;;;8.70;99.90;7.70;97908.00;;;;5069988;28;20275;-72
2022/11/10 07:42:29;;;;;;;0.10;0.10;;;8.70;99.90;7.70;97917.00;;;;5066198;28;20202;-72
2022/11/10 07:45:16;;;;;;;0.10;0.10;;;8.70;99.90;7.70;97914.00;;;;5067068;28;20201;-72
2022/11/10 07:48:06;;;;;;;0.10;0.10;;;8.70;99.90;7.70;97929.00;;;;5070418;28;20204;-74
2022/11/10 07:50:53;;;;;;;0.10;0.10;;;8.80;99.90;7.80;97858.00;;;;5071543;28;20211;-71
2022/11/10 07:53:40;;;;;;;0.10;0.10;;;8.80;99.90;7.90;97931.00;;;;5072227;28;20373;-71
2022/11/10 07:56:27;;;;;;;0.10;0.10;;;8.90;99.90;7.90;97931.00;;;;5069468;28;20283;-72
2022/11/10 07:59:15;;;;;;;0.10;0.10;;;8.90;99.90;8.00;97938.00;;;;5068210;28;20260;-72
2022/11/10 08:02:02;;;;;;;0.00;0.00;;;9.00;99.90;8.10;97934.00;;;;5071411;28;20204;-72
2022/11/10 08:04:49;;;;;;;0.10;0.10;;;9.10;99.90;8.20;97950.00;;;;5071417;28;20759;-73
2022/11/10 08:07:36;;;;;;;0.10;0.10;;;9.20;99.90;8.20;97945.00;;;;5069409;28;20232;-74
2022/11/10 08:10:23;;;;;;;0.10;0.10;;;9.20;99.90;8.30;97945.00;;;;5070674;28;20271;-75
2022/11/10 08:13:12;;;;;;;0.10;0.10;;;9.30;99.90;8.40;97964.00;;;;5072890;28;20212;-74
2022/11/10 08:16:00;;;;;;;0.00;0.00;;;9.40;99.90;8.50;97961.00;;;;5071486;28;20232;-76
2022/11/10 08:18:47;;;;;;;0.10;0.10;;;9.50;99.90;8.60;97984.00;;;;5067514;28;20207;-74
2022/11/10 08:21:34;;;;;;;0.10;0.10;;;9.60;99.90;8.80;97986.00;;;;5074234;28;20572;-74
2022/11/10 08:24:20;;;;;;;0.00;0.00;;;9.80;99.90;8.90;97976.00;;;;5072991;28;20282;-73
2022/11/10 08:27:07;;;;;;;0.10;0.10;;;9.90;99.90;9.00;97995.00;;;;5069676;28;20224;-73
2022/11/10 08:29:54;;;;;;;0.10;0.10;;;10.00;99.90;9.10;97991.00;;;;5073216;28;20736;-73
2022/11/10 08:32:42;;;;;;;0.10;0.10;;;10.10;99.90;9.20;97999.00;;;;5071311;28;20781;-73
2022/11/10 08:35:32;;;;;;;0.10;0.10;;;10.10;99.90;9.30;98003.00;;;;5073566;28;20205;-73
2022/11/10 08:38:22;;;;;;;0.10;0.10;;;10.20;99.90;9.30;97982.00;;;;5066114;28;20278;-73
2022/11/10 08:41:08;;;;;;;0.00;0.00;;;10.30;99.90;9.40;97997.00;;;;5070276;28;20303;-73
2022/11/10 08:43:55;;;;;;;0.00;0.00;;;10.30;99.90;9.40;97961.00;;;;5073357;28;20216;-73
2022/11/10 08:46:43;;;;;;;0.10;0.10;;;10.40;99.90;9.50;98002.00;;;;5073312;28;20331;-75
2022/11/10 08:49:30;;;;;;;0.10;0.10;;;10.50;99.90;9.50;98013.00;;;;5068491;28;20576;-73
2022/11/10 08:52:17;;;;;;;0.10;0.10;;;10.50;99.90;9.60;98024.00;;;;5070446;28;20589;-73
2022/11/10 08:55:05;;;;;;;0.10;0.10;;;10.60;99.90;9.80;98018.00;;;;5067704;28;20205;-75
2022/11/10 08:57:51;;;;;;;0.10;0.10;;;10.70;99.90;9.90;98033.00;;;;5070650;28;20244;-73
2022/11/10 09:00:38;;;;;;;0.10;0.10;;;10.80;99.90;10.00;98022.00;;;;5072820;28;20240;-75
2022/11/10 09:03:26;;;;;;;0.10;0.10;;;10.90;99.90;10.00;98061.00;;;;5072461;28;20330;-73
2022/11/10 09:06:14;;;;;;;0.00;0.00;;;10.90;99.90;10.10;98046.00;;;;5070759;28;20220;-75
2022/11/10 09:09:01;;;;;;;0.03;0.03;;;11.00;99.90;10.10;98047.00;;;;5070516;28;20229;-74
2022/11/10 09:11:48;;;;;;;0.10;0.10;;;11.10;99.90;10.20;98064.00;;;;5074566;28;20678;-73
2022/11/10 09:14:35;;;;;;;0.10;0.10;;;11.10;99.90;10.30;98062.00;;;;5072345;28;20216;-75
2022/11/10 09:17:21;;;;;;;0.10;0.10;;;11.20;99.90;10.30;98059.00;;;;5071333;28;20336;-74
2022/11/10 09:20:11;;;;;;;0.00;0.00;;;11.20;99.90;10.40;98059.00;;;;5071952;28;20229;-74
2022/11/10 09:23:05;;;;;;;0.10;0.10;;;11.20;99.90;10.40;98055.00;;;;5070860;28;20216;-73
2022/11/10 09:25:54;;;;;;;0.10;0.10;;;11.30;99.90;10.40;98048.00;;;;5057422;28;20711;-74
2022/11/10 09:28:41;;;;;;;0.10;0.10;;;11.30;99.90;10.50;98074.00;;;;5069588;28;20204;-74
2022/11/10 09:31:28;;;;;;;0.10;0.10;;;11.40;99.90;10.60;98072.00;;;;5068266;28;20310;-73
2022/11/10 09:34:15;;;;;;;0.05;0.05;;;11.40;99.90;10.50;98079.00;;;;5069016;28;20228;-74
2022/11/10 09:37:01;;;;;;;0.10;0.10;;;11.40;99.90;10.60;98092.00;;;;5064381;28;21007;-74
2022/11/10 09:39:50;;;;;;;0.10;0.10;;;11.50;99.90;10.60;98088.00;;;;5068402;28;20659;-75
2022/11/10 09:42:40;;;;;;;0.10;0.10;;;11.50;99.90;10.50;98097.00;;;;5063069;28;20208;-74
2022/11/10 09:45:32;;;;;;;0.00;0.00;;;11.40;99.90;10.30;98079.00;;;;5068495;28;20213;-74
2022/11/10 09:48:28;;;;;;;0.10;0.10;;;11.40;99.90;10.60;98076.00;;;;5058404;28;20264;-74
2022/11/10 09:51:23;;;;;;;0.10;0.10;;;11.50;99.90;10.70;98080.00;;;;5067563;28;20205;-75
2022/11/10 09:54:32;;;;;;;0.10;0.10;;;11.60;99.90;10.80;98097.00;;;;5070342;28;20255;-74
2022/11/10 09:57:24;;;;;;;0.10;0.10;;;11.60;99.90;10.70;98093.00;;;;5064004;28;20256;-73
2022/11/10 10:00:15;;;;;;;0.10;0.10;;;11.60;99.90;10.60;98092.00;;;;5065505;28;20216;-74
2022/11/10 10:03:04;;;;;;;0.00;0.00;;;11.50;99.90;10.50;98101.00;;;;5066826;28;20921;-73
2022/11/10 10:06:07;;;;;;;0.10;0.10;;;11.40;99.90;10.50;98107.00;;;;5057794;28;20336;-73
2022/11/10 10:09:10;;;;;;;0.03;0.03;;;11.40;99.90;10.40;98109.00;;;;5070085;28;20324;-74
2022/11/10 10:12:10;;;;;;;0.00;0.00;;;11.40;99.90;10.50;98098.00;;;;5067508;28;20216;-74
2022/11/10 10:15:20;;;;;;;0.00;0.00;;;11.40;99.90;10.50;98103.00;;;;5062486;28;20209;-74
2022/11/10 10:18:26;;;;;;;0.10;0.10;;;11.40;99.90;10.60;98105.00;;;;5069064;28;20212;-73
2022/11/10 10:21:43;;;;;;;0.10;0.10;;;11.50;99.90;10.70;98112.00;;;;5067205;28;20223;-73
2022/11/10 10:24:33;;;;;;;0.00;0.00;;;11.60;99.90;10.70;98139.00;;;;5065461;28;20213;-74
2022/11/10 10:27:25;;;;;;;0.03;0.03;;;11.60;99.90;10.70;98126.00;;;;5071404;28;20225;-73
2022/11/10 10:30:17;;;;;;;0.10;0.10;;;11.60;99.90;10.70;98123.00;;;;5062817;28;20213;-73
2022/11/10 10:33:16;;;;;;;0.10;0.10;;;11.60;99.90;10.70;98127.00;;;;5059741;28;20224;-74
2022/11/10 10:36:09;;;;;;;0.10;0.10;;;11.60;99.90;10.80;98123.00;;;;5063739;28;20338;-73
2022/11/10 10:39:01;;;;;;;0.00;0.00;;;11.70;99.90;10.80;98120.00;;;;5055754;28;20560;-73
2022/11/10 10:41:48;;;;;;;0.10;0.10;;;11.70;99.90;10.90;98124.00;;;;5070407;28;20295;-74
2022/11/10 10:44:34;;;;;;;0.10;0.10;;;11.70;99.90;10.90;98125.00;;;;5067427;28;20674;-73
2022/11/10 10:47:37;;;;;;;0.10;0.10;;;11.80;99.90;11.00;98115.00;;;;5068414;28;20235;-74
2022/11/10 10:50:29;;;;;;;0.10;0.10;;;11.90;99.90;11.10;98124.00;;;;5067298;28;20228;-73
2022/11/10 10:53:18;;;;;;;0.10;0.10;;;11.90;99.90;11.30;98112.00;;;;5065162;28;20212;-73
2022/11/10 10:56:14;;;;;;;0.10;0.10;;;12.10;99.90;11.20;98118.00;;;;5063696;28;21072;-73
2022/11/10 10:59:04;;;;;;;0.10;0.10;;;12.10;99.90;11.50;98145.00;;;;5070861;28;20685;-73
2022/11/10 11:01:55;;;;;;;0.10;0.10;;;12.30;99.90;11.60;98139.00;;;;5069677;28;20232;-73
2022/11/10 11:04:44;;;;;;;0.10;0.10;;;12.40;99.90;11.70;98124.00;;;;5070977;28;20921;-74
2022/11/10 11:07:30;;;;;;;0.00;0.00;;;12.50;99.90;11.60;98127.00;;;;5070830;28;20225;-73
2022/11/10 11:10:20;;;;;;;0.00;0.00;;;12.40;99.90;11.50;98140.00;;;;5071726;28;20246;-73
2022/11/10 11:13:22;;;;;;;0.10;0.10;;;12.40;99.90;11.30;98041.00;;;;5071857;28;20200;-74
2022/11/10 11:16:11;;;;;;;0.10;0.10;;;12.20;99.90;11.20;98064.00;;;;5063855;28;20317;-74
2022/11/10 11:18:58;;;;;;;0.10;0.10;;;12.10;99.90;11.40;98077.00;;;;5069776;28;20239;-74
2022/11/10 11:22:15;;;;;;;0.10;0.10;;;12.20;99.90;11.60;98130.00;;;;5061879;28;20229;-75
2022/11/10 11:25:18;;;;;;;0.10;0.10;;;12.40;99.90;11.50;98141.00;;;;5070955;28;20201;-74
2022/11/10 11:28:17;;;;;;;0.00;0.00;;;12.30;99.90;11.40;98121.00;;;;5068320;28;20289;-74
2022/11/10 11:31:16;;;;;;;0.10;0.10;;;12.20;99.90;11.30;98082.00;;;;5070526;28;20212;-74
2022/11/10 11:34:15;;;;;;;0.10;0.10;;;12.20;99.90;11.30;98142.00;;;;5069338;28;20276;-74
2022/11/10 11:37:17;;;;;;;0.10;0.10;;;12.10;99.90;11.40;98142.00;;;;5070763;28;20267;-75
2022/11/10 11:40:26;;;;;;;0.10;0.10;;;12.10;99.90;11.40;98144.00;;;;5071231;28;20831;-74
2022/11/10 11:43:40;;;;;;;0.10;0.10;;;12.10;99.90;11.70;98143.00;;;;5071607;28;20250;-74
2022/11/10 11:46:37;;;;;;;0.00;0.00;;;12.30;99.90;11.50;98154.00;;;;5070681;28;20248;-74
2022/11/10 11:50:05;;;;;;;0.00;0.00;;;12.30;99.90;11.30;98151.00;;;;5070278;28;20204;-74
2022/11/10 11:53:11;;;;;;;0.00;0.00;;;12.10;99.90;11.20;98149.00;;;;5042884;28;20263;-75
2022/11/10 11:56:15;;;;;;;0.00;0.00;;;12.00;99.90;11.20;98163.00;;;;5069830;28;20240;-75
2022/11/10 11:59:28;;;;;;;0.10;0.10;;;12.00;99.90;11.20;98161.00;;;;5069266;28;20224;-74
2022/11/10 12:02:53;;;;;;;0.10;0.10;;;12.00;99.90;13.40;98150.00;;;;5070582;28;20758;-73
2022/11/10 12:05:56;;;;;;;0.00;0.00;;;13.30;99.90;12.70;98154.00;;;;5070105;28;20212;-75
2022/11/10 12:08:59;;;;;;;0.10;0.10;;;13.10;99.90;12.60;98158.00;;;;5066783;28;20330;-74
2022/11/10 12:12:07;;;;;;;0.00;0.00;;;13.20;99.90;11.90;98169.00;;;;5068848;28;20208;-74
2022/11/10 12:15:04;;;;;;;0.00;0.00;;;12.60;99.90;11.70;98159.00;;;;5070385;28;20199;-74
2022/11/10 12:18:06;;;;;;;0.10;0.10;;;12.50;99.90;12.00;98166.00;;;;5069518;28;20307;-74
2022/11/10 12:21:12;;;;;;;0.10;0.10;;;12.70;99.90;11.70;98173.00;;;;5070472;28;20228;-74
2022/11/10 12:24:41;;;;;;;0.10;0.10;;;12.50;99.90;11.40;98179.00;;;;5062924;28;20200;-73
2022/11/10 12:27:33;;;;;;;0.10;0.10;;;12.30;99.90;11.20;98174.00;;;;5066580;28;20314;-73
2022/11/10 12:30:20;;;;;;;0.10;0.10;;;12.00;99.90;11.20;98172.00;;;;5067156;28;20232;-74
2022/11/10 12:33:21;;;;;;;0.00;0.00;;;12.10;99.90;11.10;98194.00;;;;5071244;28;20578;-73
2022/11/10 12:36:13;;;;;;;0.10;0.10;;;11.90;99.90;11.10;98190.00;;;;5066211;28;20583;-74
2022/11/10 12:39:11;;;;;;;0.10;0.10;;;11.90;99.90;11.20;98195.00;;;;5069935;28;20596;-74
2022/11/10 12:42:00;;;;;;;0.10;0.10;;;12.00;99.90;11.20;98209.00;;;;5070606;28;20228;-75
2022/11/10 12:45:00;;;;;;;0.10;0.10;;;12.00;99.90;11.10;98212.00;;;;5069497;28;20224;-74
2022/11/10 12:47:48;;;;;;;0.10;0.10;;;11.90;99.90;10.90;98195.00;;;;5055847;28;20308;-74
2022/11/10 12:50:48;;;;;;;0.10;0.10;;;11.80;99.90;10.80;98209.00;;;;5064431;28;20209;-74
2022/11/10 12:53:40;;;;;;;0.10;0.10;;;11.80;99.90;10.80;98212.00;;;;5062387;28;20206;-74
2022/11/10 12:56:36;;;;;;;0.05;0.05;;;11.70;99.90;10.70;98219.00;;;;5093326;22;20232;-76
2022/11/10 12:59:29;;;;;;;0.00;0.00;;;11.70;99.90;10.70;98216.00;;;;5051735;28;20718;-76